createdAt,value
2018-05-31T00:00:10.039Z,10.57
2018-05-31T00:02:39.175Z,9.87
2018-05-31T00:05:08.297Z,9.70
2018-05-31T00:07:37.393Z,9.80
2018-05-31T00:10:06.580Z,10.10
2018-05-31T00:12:35.700Z,9.23
2018-05-31T00:15:04.824Z,9.60
2018-05-31T00:17:33.916Z,10.00
2018-05-31T00:20:03.064Z,10.80
2018-05-31T00:22:32.176Z,8.87
2018-05-31T00:25:01.325Z,8.97
2018-05-31T00:27:31.212Z,9.70
2018-05-31T00:30:00.332Z,9.00
2018-05-31T00:32:29.519Z,9.07
2018-05-31T00:34:58.657Z,8.90
2018-05-31T00:37:27.761Z,8.37
2018-05-31T00:39:56.885Z,8.30
2018-05-31T00:42:26.068Z,8.90
2018-05-31T00:44:55.177Z,8.50
2018-05-31T00:47:24.336Z,8.37
2018-05-31T00:49:54.193Z,8.23
2018-05-31T00:52:23.313Z,7.57
2018-05-31T00:54:52.387Z,7.70
2018-05-31T00:57:22.278Z,8.13
2018-05-31T00:59:51.393Z,7.80
2018-05-31T01:02:20.568Z,8.03
2018-05-31T01:04:49.681Z,9.70
2018-05-31T01:07:18.792Z,9.07
2018-05-31T01:09:47.900Z,7.93
2018-05-31T01:12:17.007Z,7.23
2018-05-31T01:14:46.123Z,8.10
2018-05-31T01:17:15.226Z,7.33
2018-05-31T01:19:44.429Z,7.83
2018-05-31T01:22:13.549Z,7.77
2018-05-31T01:24:42.669Z,7.90
2018-05-31T01:27:11.755Z,8.80
2018-05-31T01:29:41.667Z,8.50
2018-05-31T01:32:11.561Z,7.90
2018-05-31T01:34:40.673Z,8.37
2018-05-31T01:37:09.797Z,8.70
2018-05-31T01:39:38.943Z,8.97
2018-05-31T01:42:08.059Z,9.20
2018-05-31T01:44:37.960Z,8.80
2018-05-31T01:47:07.134Z,6.83
2018-05-31T01:49:36.220Z,7.97
2018-05-31T01:52:06.125Z,8.47
2018-05-31T01:54:36.041Z,8.53
2018-05-31T01:57:05.157Z,8.90
2018-05-31T01:59:34.369Z,9.37
2018-05-31T02:02:03.491Z,8.67
2018-05-31T02:04:32.590Z,8.30
2018-05-31T02:07:01.746Z,8.20
2018-05-31T02:09:30.869Z,8.97
2018-05-31T02:12:00.020Z,7.53
2018-05-31T02:14:29.190Z,8.10
2018-05-31T02:16:58.360Z,9.40
2018-05-31T02:19:28.206Z,8.37
2018-05-31T02:21:58.056Z,7.83
2018-05-31T02:24:27.151Z,10.37
2018-05-31T02:26:56.288Z,8.73
2018-05-31T02:29:25.498Z,8.10
2018-05-31T02:31:54.611Z,9.07
2018-05-31T02:34:23.737Z,10.00
2018-05-31T02:36:52.860Z,8.30
2018-05-31T02:39:21.975Z,8.90
2018-05-31T02:41:51.105Z,9.20
2018-05-31T02:44:20.989Z,8.57
2018-05-31T02:46:50.139Z,8.50
2018-05-31T02:49:19.259Z,9.07
2018-05-31T02:51:49.126Z,8.87
2018-05-31T02:54:18.261Z,8.30
2018-05-31T02:56:47.427Z,9.03
2018-05-31T02:59:17.299Z,8.87
2018-05-31T03:01:46.385Z,8.37
2018-05-31T03:04:15.518Z,9.30
2018-05-31T03:06:44.678Z,8.63
2018-05-31T03:09:14.560Z,9.50
2018-05-31T03:11:43.677Z,9.07
2018-05-31T03:14:12.861Z,10.27
2018-05-31T03:16:42.069Z,9.53
2018-05-31T03:19:11.171Z,8.63
2018-05-31T03:21:40.375Z,8.90
2018-05-31T03:24:10.257Z,9.63
2018-05-31T03:26:39.384Z,9.23
2018-05-31T03:29:08.516Z,9.53
2018-05-31T03:31:37.600Z,10.37
2018-05-31T03:34:06.732Z,9.90
2018-05-31T03:36:35.863Z,8.70
2018-05-31T03:39:05.823Z,9.23
2018-05-31T03:41:34.945Z,10.90
2018-05-31T03:44:04.110Z,9.97
2018-05-31T03:46:33.997Z,10.30
2018-05-31T03:49:03.181Z,10.80
2018-05-31T03:51:32.296Z,10.77
2018-05-31T03:54:01.381Z,11.10
2018-05-31T03:56:30.539Z,10.13
2018-05-31T03:58:59.684Z,10.57
2018-05-31T04:01:29.662Z,10.63
2018-05-31T04:03:58.807Z,10.83
2018-05-31T04:06:27.953Z,10.77
2018-05-31T04:08:57.051Z,11.00
2018-05-31T04:11:26.930Z,10.27
2018-05-31T04:13:56.987Z,10.73
2018-05-31T04:16:26.132Z,11.20
2018-05-31T04:18:56.026Z,10.73
2018-05-31T04:21:25.548Z,11.50
2018-05-31T04:23:54.646Z,10.73
2018-05-31T04:26:23.799Z,11.83
2018-05-31T04:28:54.055Z,10.13
2018-05-31T04:31:23.177Z,10.93
2018-05-31T04:33:52.284Z,9.47
2018-05-31T04:36:21.372Z,10.57
2018-05-31T04:38:50.513Z,10.70
2018-05-31T04:41:19.617Z,10.80
2018-05-31T04:43:48.743Z,11.53
2018-05-31T04:46:17.882Z,10.93
2018-05-31T04:48:47.081Z,10.53
2018-05-31T04:51:16.488Z,10.60
2018-05-31T04:53:45.626Z,10.10
2018-05-31T04:56:14.802Z,10.23
2018-05-31T04:58:43.928Z,10.60
2018-05-31T05:01:13.065Z,10.53
2018-05-31T05:03:42.244Z,11.13
2018-05-31T05:06:11.402Z,10.77
2018-05-31T05:08:41.283Z,11.50
2018-05-31T05:11:10.375Z,11.10
2018-05-31T05:13:39.545Z,11.03
2018-05-31T05:16:08.636Z,10.67
2018-05-31T05:18:37.888Z,9.80
2018-05-31T05:21:07.839Z,10.43
2018-05-31T05:23:36.969Z,10.33
2018-05-31T05:26:06.140Z,11.70
2018-05-31T05:28:36.049Z,11.83
2018-05-31T05:31:05.191Z,10.37
2018-05-31T05:33:34.296Z,11.40
2018-05-31T05:36:04.276Z,10.10
2018-05-31T05:38:33.375Z,10.73
2018-05-31T05:41:02.528Z,11.37
2018-05-31T05:43:31.618Z,10.27
2018-05-31T05:46:00.714Z,10.47
2018-05-31T05:48:29.872Z,11.57
2018-05-31T05:50:59.837Z,10.30
2018-05-31T05:53:28.981Z,10.67
2018-05-31T05:55:58.123Z,10.88
2018-05-31T05:58:28.044Z,10.10
2018-05-31T06:00:57.123Z,10.40
2018-05-31T06:03:26.237Z,11.00
2018-05-31T06:05:55.374Z,10.77
2018-05-31T06:08:24.565Z,12.70
2018-05-31T06:10:53.697Z,9.80
2018-05-31T06:13:23.610Z,10.20
2018-05-31T06:15:52.732Z,10.07
2018-05-31T06:18:21.818Z,11.20
2018-05-31T06:20:50.906Z,11.67
2018-05-31T06:23:20.116Z,11.27
2018-05-31T06:25:49.244Z,9.73
2018-05-31T06:28:18.365Z,9.80
2018-05-31T06:30:47.458Z,10.07
2018-05-31T06:33:16.577Z,9.33
2018-05-31T06:35:45.726Z,8.80
2018-05-31T06:38:14.824Z,9.73
2018-05-31T06:40:44.056Z,9.43
2018-05-31T06:43:13.201Z,9.43
2018-05-31T06:45:42.375Z,8.63
2018-05-31T06:48:11.506Z,9.40
2018-05-31T06:50:41.377Z,8.57
2018-05-31T06:53:10.489Z,8.10
2018-05-31T06:55:39.593Z,9.70
2018-05-31T06:58:09.646Z,7.00
2018-05-31T07:00:39.721Z,7.20
2018-05-31T07:03:09.599Z,7.70
2018-05-31T07:05:38.688Z,7.27
2018-05-31T07:08:07.885Z,7.30
2018-05-31T07:10:37.827Z,6.87
2018-05-31T07:13:06.903Z,8.10
2018-05-31T07:15:36.010Z,7.50
2018-05-31T07:18:05.140Z,7.33
2018-05-31T07:23:33.388Z,5.93
2018-05-31T07:26:02.530Z,6.13
2018-05-31T07:31:32.753Z,6.33
2018-05-31T07:34:02.626Z,5.90
2018-05-31T07:36:31.758Z,6.43
2018-05-31T07:39:00.815Z,5.53
2018-05-31T07:41:30.693Z,6.00
2018-05-31T07:43:59.806Z,6.37
2018-05-31T07:46:28.987Z,5.60
2018-05-31T07:48:58.827Z,6.90
2018-05-31T07:51:27.987Z,5.90
2018-05-31T07:53:57.901Z,6.40
2018-05-31T07:56:27.005Z,6.10
2018-05-31T07:58:56.084Z,5.60
2018-05-31T08:01:25.524Z,5.70
2018-05-31T08:03:54.612Z,6.10
2018-05-31T08:06:23.747Z,7.00
2018-05-31T08:08:52.840Z,5.87
2018-05-31T08:11:21.956Z,5.70
2018-05-31T08:13:51.050Z,7.00
2018-05-31T08:16:20.181Z,7.13
2018-05-31T08:18:49.351Z,8.30
2018-05-31T08:21:18.476Z,7.37
2018-05-31T08:23:48.401Z,7.60
2018-05-31T08:26:18.294Z,7.27
2018-05-31T08:28:47.425Z,7.73
2018-05-31T08:31:16.729Z,7.17
2018-05-31T08:33:45.834Z,7.90
2018-05-31T08:36:14.927Z,7.20
2018-05-31T08:38:44.022Z,7.73
2018-05-31T08:41:13.132Z,7.23
2018-05-31T08:43:42.239Z,6.83
2018-05-31T08:46:11.405Z,6.70
2018-05-31T08:48:41.994Z,6.20
2018-05-31T08:51:11.138Z,5.80
2018-05-31T08:53:41.013Z,6.20
2018-05-31T08:56:10.918Z,6.40
2018-05-31T08:58:40.025Z,5.80
2018-05-31T09:01:09.130Z,5.47
2018-05-31T09:03:38.405Z,5.50
2018-05-31T09:06:07.510Z,6.10
2018-05-31T09:08:36.617Z,5.30
2018-05-31T09:11:05.746Z,5.13
2018-05-31T09:13:34.869Z,4.80
2018-05-31T09:16:03.940Z,5.67
2018-05-31T09:18:33.048Z,5.60
2018-05-31T09:21:02.176Z,5.30
2018-05-31T09:23:31.394Z,5.57
2018-05-31T09:26:00.602Z,5.10
2018-05-31T09:28:29.736Z,4.53
2018-05-31T09:30:58.881Z,5.27
2018-05-31T09:33:27.953Z,6.10
2018-05-31T09:35:57.081Z,4.83
2018-05-31T09:38:26.160Z,5.50
2018-05-31T09:40:55.328Z,5.37
2018-05-31T09:43:24.401Z,5.23
2018-05-31T09:45:53.551Z,4.90
2018-05-31T09:48:23.409Z,5.00
2018-05-31T09:50:52.485Z,5.03
2018-05-31T09:53:21.585Z,4.83
2018-05-31T09:55:50.749Z,5.00
2018-05-31T09:58:19.815Z,5.00
2018-05-31T10:00:48.948Z,5.27
2018-05-31T10:03:18.781Z,4.80
2018-05-31T10:05:47.910Z,4.67
2018-05-31T10:08:16.985Z,5.03
2018-05-31T10:10:46.881Z,4.63
2018-05-31T10:13:15.992Z,5.07
2018-05-31T10:15:45.069Z,5.27
2018-05-31T10:18:14.191Z,4.97
2018-05-31T10:20:43.252Z,4.50
2018-05-31T10:23:13.213Z,5.27
2018-05-31T10:25:42.349Z,4.23
2018-05-31T10:28:11.501Z,4.53
2018-05-31T10:30:41.393Z,5.00
2018-05-31T10:33:10.523Z,4.57
2018-05-31T10:35:39.886Z,3.97
2018-05-31T10:38:09.026Z,4.60
2018-05-31T10:40:38.259Z,3.57
2018-05-31T10:43:08.283Z,4.17
2018-05-31T10:45:37.366Z,4.30
2018-05-31T10:48:06.478Z,4.20
2018-05-31T10:50:35.640Z,3.40
2018-05-31T10:53:05.555Z,3.80
2018-05-31T10:55:34.680Z,4.30
2018-05-31T10:58:03.817Z,3.60
2018-05-31T11:00:34.131Z,3.60
2018-05-31T11:03:03.224Z,4.30
2018-05-31T11:05:33.071Z,4.83
2018-05-31T11:08:02.168Z,4.50
2018-05-31T11:10:31.267Z,3.90
2018-05-31T11:13:00.397Z,3.63
2018-05-31T11:15:29.544Z,4.73
2018-05-31T11:17:59.425Z,4.17
2018-05-31T11:20:28.616Z,4.07
2018-05-31T11:22:57.717Z,3.80
2018-05-31T11:25:26.800Z,3.97
2018-05-31T11:27:56.676Z,4.57
2018-05-31T11:30:25.798Z,3.93
2018-05-31T11:32:54.961Z,3.80
2018-05-31T11:35:24.046Z,3.83
2018-05-31T11:37:53.140Z,4.50
2018-05-31T11:40:22.213Z,3.73
2018-05-31T11:42:51.345Z,3.93
2018-05-31T11:45:20.415Z,4.57
2018-05-31T11:47:49.616Z,3.67
2018-05-31T11:50:18.687Z,4.47
2018-05-31T11:52:47.850Z,4.07
2018-05-31T11:55:16.926Z,4.17
2018-05-31T11:57:46.020Z,4.87
2018-05-31T12:00:15.156Z,5.73
2018-05-31T12:02:45.065Z,5.47
2018-05-31T12:05:14.200Z,4.40
2018-05-31T12:07:44.064Z,4.70
2018-05-31T12:10:13.148Z,4.53
2018-05-31T12:12:43.134Z,4.90
2018-05-31T12:15:12.357Z,4.60
2018-05-31T12:17:41.437Z,5.20
2018-05-31T12:20:10.591Z,4.47
2018-05-31T12:22:39.664Z,5.23
2018-05-31T12:25:08.808Z,5.33
2018-05-31T12:27:37.964Z,4.60
2018-05-31T12:30:07.045Z,5.07
2018-05-31T12:32:36.872Z,4.67
2018-05-31T12:35:06.742Z,5.43
2018-05-31T12:37:35.871Z,4.90
2018-05-31T12:40:04.937Z,4.30
2018-05-31T12:42:34.034Z,5.13
2018-05-31T12:45:03.876Z,5.03
2018-05-31T12:47:33.733Z,4.60
2018-05-31T12:50:02.813Z,4.50
2018-05-31T12:52:32.017Z,4.60
2018-05-31T12:55:01.852Z,4.70
2018-05-31T12:57:31.720Z,4.43
2018-05-31T13:00:00.822Z,4.83
2018-05-31T13:02:29.897Z,5.00
2018-05-31T13:04:59.816Z,4.50
2018-05-31T13:07:29.702Z,4.57
2018-05-31T13:09:58.854Z,4.43
2018-05-31T13:12:28.736Z,4.60
2018-05-31T13:14:57.895Z,5.60
2018-05-31T13:17:27.783Z,4.90
2018-05-31T13:19:56.951Z,5.50
2018-05-31T13:22:26.792Z,4.90
2018-05-31T13:24:55.942Z,5.07
2018-05-31T13:27:25.083Z,5.10
2018-05-31T13:29:54.181Z,5.70
2018-05-31T13:32:23.345Z,4.60
2018-05-31T13:34:52.452Z,4.87
2018-05-31T13:37:21.624Z,5.50
2018-05-31T13:39:50.742Z,4.93
2018-05-31T13:42:20.580Z,4.17
2018-05-31T13:44:50.453Z,4.60
2018-05-31T13:47:21.184Z,4.60
2018-05-31T13:49:50.283Z,4.70
2018-05-31T13:52:19.401Z,4.93
2018-05-31T13:54:48.530Z,5.03
2018-05-31T13:57:17.700Z,4.60
2018-05-31T13:59:47.595Z,4.60
2018-05-31T14:02:16.654Z,4.10
2018-05-31T14:04:45.715Z,5.37
2018-05-31T14:07:14.824Z,5.30
2018-05-31T14:09:43.885Z,4.90
2018-05-31T14:12:13.000Z,5.47
2018-05-31T14:14:42.067Z,4.93
2018-05-31T14:17:11.134Z,5.40
2018-05-31T14:19:40.204Z,4.17
2018-05-31T14:22:10.061Z,4.67
2018-05-31T14:24:39.127Z,4.10
2018-05-31T14:27:08.225Z,5.90
2018-05-31T14:29:37.323Z,5.07
2018-05-31T14:32:06.431Z,4.70
2018-05-31T14:34:35.511Z,7.03
2018-05-31T14:37:04.620Z,5.70
2018-05-31T14:39:33.763Z,5.33
2018-05-31T14:42:02.874Z,4.27
2018-05-31T14:44:32.862Z,4.60
2018-05-31T14:47:02.199Z,4.73
2018-05-31T14:49:31.324Z,4.20
2018-05-31T14:52:00.433Z,4.80
2018-05-31T14:54:29.523Z,5.40
2018-05-31T14:56:58.648Z,5.80
2018-05-31T14:59:27.725Z,5.93
2018-05-31T15:01:57.661Z,5.20
2018-05-31T15:04:26.737Z,5.30
2018-05-31T15:06:55.907Z,6.40
2018-05-31T15:09:25.013Z,5.93
2018-05-31T15:11:54.079Z,5.83
2018-05-31T15:14:24.000Z,5.97
2018-05-31T15:16:53.127Z,5.87
2018-05-31T15:19:23.018Z,5.67
2018-05-31T15:21:52.161Z,5.80
2018-05-31T15:24:22.366Z,6.10
2018-05-31T15:26:51.464Z,6.53
2018-05-31T15:29:20.561Z,6.50
2018-05-31T15:31:49.703Z,6.40
2018-05-31T15:34:18.824Z,6.30
2018-05-31T15:36:47.924Z,6.70
2018-05-31T15:39:16.990Z,6.73
2018-05-31T15:41:46.064Z,6.60
2018-05-31T15:44:15.172Z,7.00
2018-05-31T15:46:44.252Z,6.77
2018-05-31T15:49:13.348Z,6.67
2018-05-31T15:51:42.468Z,6.50
2018-05-31T15:54:11.596Z,6.60
2018-05-31T15:56:40.692Z,6.60
2018-05-31T15:59:09.764Z,7.17
2018-05-31T16:01:38.869Z,6.50
2018-05-31T16:04:08.712Z,6.90
2018-05-31T16:06:38.568Z,6.40
2018-05-31T16:09:07.663Z,6.33
2018-05-31T16:11:36.830Z,6.00
2018-05-31T16:14:05.921Z,6.27
2018-05-31T16:16:35.047Z,5.80
2018-05-31T16:19:04.139Z,6.53
2018-05-31T16:21:33.217Z,7.03
2018-05-31T16:24:02.490Z,6.63
2018-05-31T16:26:32.360Z,6.20
2018-05-31T16:29:01.489Z,6.30
2018-05-31T16:31:30.604Z,5.67
2018-05-31T16:33:59.735Z,6.17
2018-05-31T16:36:28.809Z,5.97
2018-05-31T16:38:58.065Z,5.00
2018-05-31T16:41:27.178Z,6.10
2018-05-31T16:43:56.239Z,5.60
2018-05-31T16:46:25.341Z,5.73
2018-05-31T16:48:54.451Z,5.37
2018-05-31T16:51:23.608Z,5.20
2018-05-31T16:53:52.721Z,5.33
2018-05-31T16:56:21.917Z,5.47
2018-05-31T16:58:51.032Z,6.20
2018-05-31T17:01:20.176Z,7.60
2018-05-31T17:03:50.110Z,6.40
2018-05-31T17:06:19.986Z,5.80
2018-05-31T17:08:49.140Z,5.90
2018-05-31T17:11:18.256Z,5.03
2018-05-31T17:13:48.208Z,5.33
2018-05-31T17:16:17.283Z,5.37
2018-05-31T17:18:46.386Z,6.13
2018-05-31T17:21:15.460Z,5.70
2018-05-31T17:23:44.527Z,4.70
2018-05-31T17:26:14.424Z,5.43
2018-05-31T17:28:43.517Z,5.43
2018-05-31T17:31:12.673Z,7.03
2018-05-31T17:33:42.528Z,9.00
2018-05-31T17:36:11.658Z,9.43
2018-05-31T17:38:40.789Z,9.50
2018-05-31T17:41:09.906Z,10.17
2018-05-31T17:43:39.060Z,5.97
2018-05-31T17:46:09.136Z,5.30
2018-05-31T17:48:38.212Z,5.33
2018-05-31T17:51:08.118Z,5.40
2018-05-31T17:53:38.242Z,6.60
2018-05-31T17:56:07.315Z,6.10
2018-05-31T17:58:36.372Z,6.90
2018-05-31T18:01:05.551Z,9.30
2018-05-31T18:03:34.722Z,13.13
2018-05-31T18:06:03.873Z,8.67
2018-05-31T18:08:32.944Z,8.53
2018-05-31T18:11:02.829Z,6.77
2018-05-31T18:13:31.935Z,6.47
2018-05-31T18:16:01.025Z,6.20
2018-05-31T18:18:30.124Z,6.27
2018-05-31T18:20:59.227Z,6.10
2018-05-31T18:23:28.325Z,5.53
2018-05-31T18:25:57.400Z,5.90
2018-05-31T18:28:26.532Z,6.20
2018-05-31T18:30:56.377Z,5.30
2018-05-31T18:33:26.257Z,5.47
2018-05-31T18:35:55.439Z,7.73
2018-05-31T18:38:24.544Z,7.70
2018-05-31T18:40:53.611Z,6.73
2018-05-31T18:43:22.713Z,6.90
2018-05-31T18:45:51.863Z,6.50
2018-05-31T18:48:20.939Z,6.10
2018-05-31T18:50:50.106Z,6.37
2018-05-31T18:53:19.171Z,5.77
2018-05-31T18:55:48.271Z,4.40
2018-05-31T18:58:17.381Z,5.00
2018-05-31T19:00:46.486Z,5.80
2018-05-31T19:03:15.689Z,5.77
2018-05-31T19:05:44.806Z,5.03
2018-05-31T19:08:13.926Z,4.80
2018-05-31T19:10:43.016Z,5.40
2018-05-31T19:13:17.571Z,5.30
2018-05-31T19:15:46.733Z,6.00
2018-05-31T19:18:21.394Z,5.30
2018-05-31T19:20:50.524Z,5.00
2018-05-31T19:23:19.634Z,5.30
2018-05-31T19:25:48.718Z,5.50
2018-05-31T19:28:17.822Z,5.03
2018-05-31T19:30:52.492Z,4.80
2018-05-31T19:33:21.573Z,5.20
2018-05-31T19:35:56.367Z,5.43
2018-05-31T19:38:25.534Z,5.33
2018-05-31T19:40:54.659Z,5.80
2018-05-31T19:43:29.258Z,5.33
2018-05-31T19:45:59.159Z,5.43
2018-05-31T19:48:28.268Z,5.23
2018-05-31T19:50:57.653Z,5.43
2018-05-31T19:53:32.183Z,5.63
2018-05-31T19:56:01.268Z,6.20
2018-05-31T19:58:35.895Z,5.37
2018-05-31T20:01:11.300Z,5.57
2018-05-31T20:03:40.404Z,5.73
2018-05-31T20:06:09.492Z,6.40
2018-05-31T20:08:38.677Z,6.23
2018-05-31T20:11:08.537Z,6.50
2018-05-31T20:13:37.719Z,5.63
2018-05-31T20:16:07.594Z,5.63
2018-05-31T20:18:36.755Z,5.50
2018-05-31T20:21:05.870Z,5.50
2018-05-31T20:23:35.707Z,4.93
2018-05-31T20:26:06.194Z,5.17
2018-05-31T20:28:35.300Z,5.50
2018-05-31T20:31:04.377Z,5.17
2018-05-31T20:33:34.286Z,4.67
2018-05-31T20:36:03.398Z,5.20
2018-05-31T20:38:32.548Z,4.70
2018-05-31T20:41:01.811Z,4.90
2018-05-31T20:43:30.927Z,4.90
2018-05-31T20:46:00.096Z,5.10
2018-05-31T20:48:29.167Z,4.30
2018-05-31T20:50:59.039Z,4.90
2018-05-31T20:53:28.139Z,4.77
2018-05-31T20:55:57.302Z,5.57
2018-05-31T20:58:26.384Z,4.67
2018-05-31T21:00:55.552Z,6.23
2018-05-31T21:03:24.661Z,5.70
2018-05-31T21:05:53.731Z,5.07
2018-05-31T21:08:22.819Z,5.00
2018-05-31T21:10:51.916Z,5.60
2018-05-31T21:13:21.065Z,5.67
2018-05-31T21:15:50.131Z,4.50
2018-05-31T21:18:19.232Z,6.10
2018-05-31T21:20:48.305Z,4.47
2018-05-31T21:23:17.417Z,5.30
2018-05-31T21:25:46.515Z,5.60
2018-05-31T21:28:15.619Z,5.40
2018-05-31T21:30:44.700Z,5.67
2018-05-31T21:33:13.810Z,5.57
2018-05-31T21:35:42.979Z,5.83
2018-05-31T21:38:12.144Z,5.20
2018-05-31T21:40:41.252Z,6.03
2018-05-31T21:43:10.380Z,5.63
2018-05-31T21:45:39.450Z,5.90
2018-05-31T21:48:08.520Z,6.30
2018-05-31T21:50:37.652Z,5.60
2018-05-31T21:53:08.432Z,5.80
2018-05-31T21:55:37.626Z,6.00
2018-05-31T21:58:06.715Z,6.50
2018-05-31T22:00:41.402Z,6.47
2018-05-31T22:03:10.462Z,6.17
2018-05-31T22:05:39.624Z,6.30
2018-05-31T22:08:08.744Z,6.63
2018-05-31T22:10:37.811Z,5.77
2018-05-31T22:13:07.644Z,5.70
2018-05-31T22:15:37.488Z,6.60
2018-05-31T22:18:06.584Z,6.93
2018-05-31T22:20:35.697Z,6.90
2018-05-31T22:23:05.556Z,6.93
2018-05-31T22:25:34.684Z,6.63
2018-05-31T22:28:03.793Z,6.57
2018-05-31T22:30:32.869Z,6.80
2018-05-31T22:33:02.044Z,7.10
2018-05-31T22:35:31.115Z,6.33
2018-05-31T22:38:00.250Z,6.00
2018-05-31T22:40:29.391Z,7.30
2018-05-31T22:42:59.299Z,7.57
2018-05-31T22:45:28.371Z,7.77
2018-05-31T22:47:57.509Z,6.40
2018-05-31T22:50:27.357Z,7.07
2018-05-31T22:52:56.431Z,7.83
2018-05-31T22:55:25.556Z,6.73
2018-05-31T22:57:54.659Z,7.40
2018-05-31T23:00:23.765Z,7.60
2018-05-31T23:02:52.913Z,7.70
2018-05-31T23:05:22.027Z,7.50
2018-05-31T23:07:51.105Z,8.00
2018-05-31T23:10:20.306Z,7.40
2018-05-31T23:12:49.409Z,7.10
2018-05-31T23:15:18.505Z,7.90
2018-05-31T23:17:47.599Z,6.80
2018-05-31T23:20:16.706Z,7.17
2018-05-31T23:22:45.873Z,7.17
2018-05-31T23:25:14.990Z,7.30
2018-05-31T23:27:44.072Z,7.43
2018-05-31T23:30:13.188Z,7.57
2018-05-31T23:32:42.293Z,7.90
2018-05-31T23:35:11.413Z,7.47
2018-05-31T23:37:40.514Z,8.00
2018-05-31T23:40:09.632Z,8.30
2018-05-31T23:42:38.740Z,7.23
2018-05-31T23:45:07.886Z,7.40
2018-05-31T23:47:36.962Z,7.67
2018-05-31T23:50:06.038Z,6.93
2018-05-31T23:52:35.966Z,7.70
2018-05-31T23:55:05.069Z,7.87
2018-05-31T23:57:34.983Z,7.83
